Terminal Aerodrome Forecast
Issued by NWS Dodge City, KS

Home | Current Version | Previous Version | Text Only | Print | Product List | Glossary On
Versions: 1 2 3 4 5 6 7 8 9 10 11 12 13 14 15 16 17 18 19 20 21 22 23
000
FTUS43 KDDC 201120
TAFDDC
TAF
KDDC 201120Z 2012/2112 VRB06KT P6SM SKC
     FM201800 13007KT P6SM SKC
     FM210000 13009KT P6SM SCT250
     FM210600 16009KT 5SM BR OVC010
     FM210900 17009KT 1SM BR OVC002=

USA.gov is the U.S. government's official web portal to all federal, state and local government web resources and services.